createdAt,value
2019-03-16T00:00:36.532Z,22.30
2019-03-16T00:03:03.260Z,22.20
2019-03-16T00:05:29.975Z,22.10
2019-03-16T00:07:56.777Z,21.80
2019-03-16T00:10:23.491Z,21.80
2019-03-16T00:12:50.195Z,21.50
2019-03-16T00:15:17.005Z,21.30
2019-03-16T00:17:43.720Z,21.30
2019-03-16T00:20:10.445Z,21.10
2019-03-16T00:22:37.231Z,20.80
2019-03-16T00:25:03.924Z,20.70
2019-03-16T00:27:30.555Z,20.70
2019-03-16T00:29:57.377Z,20.60
2019-03-16T00:32:24.096Z,20.70
2019-03-16T00:34:50.788Z,20.40
2019-03-16T00:37:17.508Z,20.50
2019-03-16T00:39:44.221Z,20.30
2019-03-16T00:42:10.913Z,20.50
2019-03-16T00:44:37.625Z,20.80
2019-03-16T00:47:04.313Z,20.70
2019-03-16T00:49:30.928Z,20.50
2019-03-16T00:51:57.699Z,20.70
2019-03-16T00:54:24.424Z,20.30
2019-03-16T00:56:51.144Z,20.20
2019-03-16T00:59:18.376Z,20.30
2019-03-16T01:01:45.105Z,19.90
2019-03-16T01:04:11.825Z,19.40
2019-03-16T01:06:38.612Z,19.40
2019-03-16T01:09:05.336Z,19.70
2019-03-16T01:11:32.051Z,20.00
2019-03-16T01:13:58.832Z,20.10
2019-03-16T01:16:25.526Z,20.20
2019-03-16T01:18:52.215Z,20.10
2019-03-16T01:21:18.918Z,20.40
2019-03-16T01:23:45.636Z,20.40
2019-03-16T01:26:12.392Z,20.70
2019-03-16T01:28:39.182Z,20.30
2019-03-16T01:31:05.912Z,20.30
2019-03-16T01:33:32.610Z,20.40
2019-03-16T01:35:59.406Z,20.40
2019-03-16T01:38:26.092Z,20.60
2019-03-16T01:40:52.784Z,20.30
2019-03-16T01:43:19.471Z,20.60
2019-03-16T01:45:46.196Z,20.70
2019-03-16T01:48:12.906Z,20.50
2019-03-16T01:50:39.858Z,20.60
2019-03-16T01:53:06.578Z,20.60
2019-03-16T01:55:33.288Z,20.70
2019-03-16T01:58:00.051Z,20.50
2019-03-16T02:00:26.739Z,20.60
2019-03-16T02:02:55.654Z,20.50
2019-03-16T02:05:21.812Z,20.70
2019-03-16T02:07:48.533Z,20.60
2019-03-16T02:10:15.224Z,20.50
2019-03-16T02:12:41.991Z,20.60
2019-03-16T02:15:08.721Z,21.00
2019-03-16T02:17:35.405Z,21.50
2019-03-16T02:20:02.113Z,21.70
2019-03-16T02:22:28.836Z,21.80
2019-03-16T02:24:55.553Z,22.00
2019-03-16T02:27:22.308Z,22.20
2019-03-16T02:29:48.926Z,22.00
2019-03-16T02:32:15.624Z,22.20
2019-03-16T02:34:42.414Z,22.10
2019-03-16T02:37:09.104Z,21.90
2019-03-16T02:39:35.802Z,21.70
2019-03-16T02:42:02.557Z,21.30
2019-03-16T02:44:29.248Z,20.90
2019-03-16T02:46:55.962Z,21.10
2019-03-16T02:49:22.706Z,21.50
2019-03-16T02:51:49.397Z,21.30
2019-03-16T02:54:16.045Z,21.40
2019-03-16T02:56:42.817Z,21.60
2019-03-16T02:59:09.469Z,21.50
2019-03-16T03:01:36.189Z,21.20
2019-03-16T03:04:03.130Z,21.20
2019-03-16T03:06:29.844Z,21.00
2019-03-16T03:08:56.534Z,20.80
2019-03-16T03:11:23.310Z,20.60
2019-03-16T03:13:50.065Z,20.70
2019-03-16T03:16:16.764Z,20.70
2019-03-16T03:18:43.516Z,20.90
2019-03-16T03:21:10.239Z,21.00
2019-03-16T03:23:36.943Z,21.10
2019-03-16T03:26:03.645Z,20.70
2019-03-16T03:28:30.362Z,20.90
2019-03-16T03:30:57.060Z,20.70
2019-03-16T03:33:23.837Z,20.90
2019-03-16T03:35:50.574Z,21.30
2019-03-16T03:38:17.248Z,21.70
2019-03-16T03:40:43.920Z,21.90
2019-03-16T03:43:10.570Z,22.10
2019-03-16T03:45:37.271Z,22.20
2019-03-16T03:48:04.056Z,22.00
2019-03-16T03:50:30.781Z,22.20
2019-03-16T03:52:57.644Z,22.30
2019-03-16T03:55:24.355Z,22.30
2019-03-16T03:57:51.049Z,22.40
2019-03-16T04:00:17.685Z,22.30
2019-03-16T04:02:44.434Z,22.60
2019-03-16T04:05:11.127Z,22.20
2019-03-16T04:07:37.834Z,22.10
2019-03-16T04:10:04.587Z,22.20
2019-03-16T04:12:31.322Z,22.40
2019-03-16T04:14:58.031Z,22.10
2019-03-16T04:17:24.788Z,22.20
2019-03-16T04:19:51.463Z,22.30
2019-03-16T04:22:18.191Z,22.40
2019-03-16T04:24:45.647Z,22.10
2019-03-16T04:27:16.308Z,22.20
2019-03-16T04:29:40.763Z,22.00
2019-03-16T04:32:07.559Z,22.10
2019-03-16T04:34:34.283Z,22.00
2019-03-16T04:37:00.990Z,22.20
2019-03-16T04:39:28.070Z,22.30
2019-03-16T04:41:54.771Z,22.20
2019-03-16T04:44:21.467Z,22.00
2019-03-16T04:46:48.220Z,22.00
2019-03-16T04:49:14.873Z,22.20
2019-03-16T04:51:41.561Z,22.10
2019-03-16T04:54:08.276Z,22.10
2019-03-16T04:56:35.001Z,22.10
2019-03-16T04:59:01.688Z,22.20
2019-03-16T05:01:28.400Z,22.50
2019-03-16T05:03:55.137Z,22.40
2019-03-16T05:06:21.836Z,21.80
2019-03-16T05:08:48.589Z,21.90
2019-03-16T05:11:15.234Z,22.00
2019-03-16T05:13:41.967Z,21.90
2019-03-16T05:16:08.714Z,22.00
2019-03-16T05:18:35.407Z,22.00
2019-03-16T05:21:02.069Z,22.20
2019-03-16T05:23:28.891Z,22.20
2019-03-16T05:25:55.549Z,21.80
2019-03-16T05:28:22.261Z,21.80
2019-03-16T05:30:49.030Z,21.80
2019-03-16T05:33:15.743Z,21.80
2019-03-16T05:35:42.488Z,22.10
2019-03-16T05:38:09.249Z,22.00
2019-03-16T05:40:35.942Z,22.00
2019-03-16T05:43:02.588Z,22.00
2019-03-16T05:45:29.371Z,21.90
2019-03-16T05:47:56.065Z,21.90
2019-03-16T05:50:22.691Z,22.10
2019-03-16T05:52:49.474Z,22.00
2019-03-16T05:55:16.288Z,21.90
2019-03-16T05:57:42.963Z,21.70
2019-03-16T06:00:10.120Z,21.50
2019-03-16T06:02:36.925Z,21.50
2019-03-16T06:05:10.292Z,21.20
2019-03-16T06:07:32.372Z,21.30
2019-03-16T06:09:59.097Z,21.30
2019-03-16T06:12:25.812Z,21.30
2019-03-16T06:14:52.585Z,21.40
2019-03-16T06:17:19.299Z,21.50
2019-03-16T06:19:46.024Z,21.70
2019-03-16T06:22:12.916Z,22.10
2019-03-16T06:24:39.606Z,22.50
2019-03-16T06:27:06.249Z,22.80
2019-03-16T06:29:33.043Z,22.80
2019-03-16T06:31:59.732Z,23.00
2019-03-16T06:34:26.352Z,22.70
2019-03-16T06:36:53.449Z,22.80
2019-03-16T06:39:20.166Z,22.60
2019-03-16T06:41:46.861Z,22.40
2019-03-16T06:44:13.698Z,22.50
2019-03-16T06:46:40.499Z,22.40
2019-03-16T06:49:07.206Z,22.60
2019-03-16T06:51:33.994Z,22.60
2019-03-16T06:54:00.725Z,22.60
2019-03-16T06:56:27.461Z,22.70
2019-03-16T06:58:54.247Z,22.60
2019-03-16T07:01:21.053Z,22.70
2019-03-16T07:03:47.793Z,23.10
2019-03-16T07:06:14.627Z,23.40
2019-03-16T07:08:41.371Z,23.20
2019-03-16T07:11:08.105Z,23.10
2019-03-16T07:13:34.957Z,23.00
2019-03-16T07:16:01.876Z,23.30
2019-03-16T07:18:30.302Z,23.20
2019-03-16T07:20:58.239Z,23.30
2019-03-16T07:23:25.060Z,23.50
2019-03-16T07:25:51.887Z,23.30
2019-03-16T07:28:18.670Z,23.20
2019-03-16T07:30:45.662Z,23.10
2019-03-16T07:33:12.595Z,23.30
2019-03-16T07:35:39.982Z,23.30
2019-03-16T07:38:06.662Z,23.30
2019-03-16T07:40:33.401Z,23.20
2019-03-16T07:43:01.206Z,23.10
2019-03-16T07:45:28.674Z,22.80
2019-03-16T07:47:55.368Z,22.80
2019-03-16T07:50:22.488Z,22.80
2019-03-16T07:52:49.426Z,22.80
2019-03-16T07:55:16.177Z,22.60
2019-03-16T07:57:43.121Z,22.80
2019-03-16T08:00:09.812Z,22.80
2019-03-16T08:02:36.458Z,22.70
2019-03-16T08:05:17.540Z,22.30
2019-03-16T08:07:33.403Z,22.50
2019-03-16T08:10:02.997Z,22.40
2019-03-16T08:12:28.595Z,22.60
2019-03-16T08:14:55.413Z,22.60
2019-03-16T08:17:22.164Z,22.30
2019-03-16T08:19:48.925Z,22.60
2019-03-16T08:22:15.739Z,22.60
2019-03-16T08:24:42.468Z,22.80
2019-03-16T08:27:09.306Z,23.00
2019-03-16T08:29:35.949Z,23.10
2019-03-16T08:32:03.101Z,23.20
2019-03-16T08:34:29.952Z,23.10
2019-03-16T08:36:56.787Z,23.00
2019-03-16T08:39:23.516Z,23.10
2019-03-16T08:41:50.365Z,23.20
2019-03-16T08:44:17.058Z,23.60
2019-03-16T08:46:43.847Z,23.70
2019-03-16T08:49:10.680Z,23.70
2019-03-16T08:51:37.436Z,24.00
2019-03-16T08:54:04.260Z,24.30
2019-03-16T08:56:30.973Z,24.40
2019-03-16T08:58:57.750Z,24.20
2019-03-16T09:01:24.478Z,24.40
2019-03-16T09:03:51.336Z,24.80
2019-03-16T09:06:18.032Z,25.00
2019-03-16T09:08:44.758Z,25.30
2019-03-16T09:11:11.651Z,25.20
2019-03-16T09:13:38.517Z,25.40
2019-03-16T09:16:05.336Z,25.80
2019-03-16T09:18:32.487Z,26.00
2019-03-16T09:20:59.323Z,25.70
2019-03-16T09:23:26.054Z,25.80
2019-03-16T09:25:52.894Z,25.90
2019-03-16T09:28:19.597Z,26.10
2019-03-16T09:30:46.374Z,26.10
2019-03-16T09:33:13.145Z,25.80
2019-03-16T09:35:39.823Z,25.90
2019-03-16T09:38:06.702Z,25.60
2019-03-16T09:40:33.868Z,26.00
2019-03-16T09:43:00.596Z,26.20
2019-03-16T09:45:27.286Z,26.70
2019-03-16T09:47:53.959Z,27.40
2019-03-16T09:50:20.587Z,27.50
2019-03-16T09:52:47.300Z,27.70
2019-03-16T09:55:14.059Z,28.10
2019-03-16T09:57:40.785Z,27.90
2019-03-16T10:00:07.537Z,27.60
2019-03-16T10:02:34.297Z,27.50
2019-03-16T10:05:01.034Z,27.60
2019-03-16T10:07:27.743Z,27.50
2019-03-16T10:09:54.507Z,27.60
2019-03-16T10:12:21.142Z,27.80
2019-03-16T10:14:47.839Z,27.60
2019-03-16T10:17:14.520Z,27.40
2019-03-16T10:19:41.186Z,27.40
2019-03-16T10:22:07.862Z,27.60
2019-03-16T10:24:34.541Z,27.30
2019-03-16T10:27:01.242Z,27.10
2019-03-16T10:29:27.969Z,26.90
2019-03-16T10:31:54.814Z,26.80
2019-03-16T10:34:21.521Z,27.20
2019-03-16T10:36:48.233Z,27.60
2019-03-16T10:39:15.090Z,28.20
2019-03-16T10:41:41.779Z,28.50
2019-03-16T10:44:08.479Z,28.60
2019-03-16T10:46:35.304Z,28.40
2019-03-16T10:49:02.035Z,28.70
2019-03-16T10:51:28.726Z,29.10
2019-03-16T10:53:55.479Z,29.40
2019-03-16T10:56:22.179Z,29.40
2019-03-16T10:58:56.654Z,29.70
2019-03-16T11:01:17.325Z,30.30
2019-03-16T11:03:44.023Z,30.90
2019-03-16T11:06:10.637Z,31.20
2019-03-16T11:08:37.349Z,30.90
2019-03-16T11:11:04.050Z,30.40
2019-03-16T11:13:30.708Z,30.10
2019-03-16T11:15:57.448Z,30.20
2019-03-16T11:18:24.179Z,29.90
2019-03-16T11:20:50.872Z,30.00
2019-03-16T11:23:17.890Z,29.80
2019-03-16T11:25:44.596Z,29.60
2019-03-16T11:28:11.288Z,29.50
2019-03-16T11:30:38.149Z,29.20
2019-03-16T11:33:04.869Z,28.90
2019-03-16T11:35:31.573Z,29.30
2019-03-16T11:37:58.368Z,29.70
2019-03-16T11:40:26.768Z,30.20
2019-03-16T11:42:53.598Z,30.40
2019-03-16T11:45:20.348Z,30.50
2019-03-16T11:47:47.054Z,30.60
2019-03-16T11:50:15.091Z,30.40
2019-03-16T11:52:42.380Z,30.40
2019-03-16T11:55:09.440Z,31.00
2019-03-16T11:57:37.390Z,31.20
2019-03-16T12:00:04.342Z,31.70
2019-03-16T12:02:31.106Z,31.90
2019-03-16T12:04:57.830Z,32.10
2019-03-16T12:07:24.590Z,32.20
2019-03-16T12:09:51.346Z,32.50
2019-03-16T12:12:18.078Z,32.70
2019-03-16T12:14:44.913Z,33.10
2019-03-16T12:17:12.742Z,33.70
2019-03-16T12:19:39.432Z,34.70
2019-03-16T12:22:06.658Z,35.60
2019-03-16T12:24:33.363Z,36.10
2019-03-16T12:27:00.058Z,36.50
2019-03-16T12:29:34.013Z,36.30
2019-03-16T12:31:55.200Z,35.80
2019-03-16T12:34:21.898Z,35.40
2019-03-16T12:36:48.643Z,35.20
2019-03-16T12:39:15.369Z,34.80
2019-03-16T12:41:42.093Z,34.60
2019-03-16T12:44:08.876Z,34.40
2019-03-16T12:46:35.603Z,34.20
2019-03-16T12:49:02.319Z,33.80
2019-03-16T12:51:29.101Z,33.40
2019-03-16T12:53:55.830Z,32.90
2019-03-16T12:56:24.149Z,32.60
2019-03-16T12:58:50.988Z,32.20
2019-03-16T13:01:18.261Z,31.70
2019-03-16T13:03:44.993Z,31.30
2019-03-16T13:06:12.162Z,30.80
2019-03-16T13:08:39.055Z,30.60
2019-03-16T13:11:05.762Z,30.40
2019-03-16T13:13:33.126Z,30.00
2019-03-16T13:16:01.816Z,29.90
2019-03-16T13:18:28.796Z,29.90
2019-03-16T13:20:56.279Z,29.70
2019-03-16T13:23:22.998Z,29.40
2019-03-16T13:25:51.127Z,29.20
2019-03-16T13:28:17.933Z,28.90
2019-03-16T13:30:44.623Z,28.90
2019-03-16T13:33:11.321Z,28.70
2019-03-16T13:35:38.188Z,28.50
2019-03-16T13:38:05.734Z,28.50
2019-03-16T13:40:32.426Z,28.40
2019-03-16T13:42:59.220Z,28.30
2019-03-16T13:45:25.907Z,28.10
2019-03-16T13:47:52.602Z,28.20
2019-03-16T13:50:19.372Z,27.80
2019-03-16T13:52:46.398Z,27.80
2019-03-16T13:55:13.108Z,27.70
2019-03-16T13:57:39.956Z,27.60
2019-03-16T14:00:11.654Z,27.30
2019-03-16T14:02:35.306Z,27.60
2019-03-16T14:05:02.084Z,27.40
2019-03-16T14:07:29.116Z,27.50
2019-03-16T14:09:55.830Z,27.80
2019-03-16T14:12:22.639Z,27.50
2019-03-16T14:14:49.423Z,27.20
2019-03-16T14:17:16.119Z,27.10
2019-03-16T14:19:42.917Z,27.00
2019-03-16T14:22:09.645Z,27.00
2019-03-16T14:24:36.359Z,26.90
2019-03-16T14:27:03.829Z,26.80
2019-03-16T14:29:30.559Z,27.00
2019-03-16T14:31:57.284Z,27.10
2019-03-16T14:34:24.070Z,27.10
2019-03-16T14:36:50.798Z,27.20
2019-03-16T14:39:17.488Z,27.50
2019-03-16T14:41:44.239Z,27.90
2019-03-16T14:44:11.386Z,28.20
2019-03-16T14:46:38.284Z,28.40
2019-03-16T14:49:05.117Z,28.40
2019-03-16T14:51:31.822Z,28.20
2019-03-16T14:53:58.510Z,28.00
2019-03-16T14:56:25.257Z,28.00
2019-03-16T14:58:51.961Z,27.70
2019-03-16T15:01:18.688Z,27.50
2019-03-16T15:03:45.475Z,27.50
2019-03-16T15:06:12.207Z,27.30
2019-03-16T15:08:38.918Z,27.00
2019-03-16T15:11:05.772Z,26.90
2019-03-16T15:13:32.465Z,26.60
2019-03-16T15:15:59.208Z,26.40
2019-03-16T15:18:26.120Z,26.60
2019-03-16T15:20:52.922Z,26.50
2019-03-16T15:23:19.641Z,26.20
2019-03-16T15:25:46.458Z,26.40
2019-03-16T15:28:13.148Z,26.50
2019-03-16T15:30:50.094Z,26.60
2019-03-16T15:33:08.287Z,26.70
2019-03-16T15:35:35.039Z,26.50
2019-03-16T15:38:02.053Z,26.70
2019-03-16T15:40:28.894Z,26.40
2019-03-16T15:42:55.743Z,26.40
2019-03-16T15:45:22.445Z,26.60
2019-03-16T15:47:49.221Z,26.60
2019-03-16T15:50:15.944Z,26.90
2019-03-16T15:52:42.684Z,27.00
2019-03-16T15:55:09.524Z,26.90
2019-03-16T15:57:36.152Z,26.60
2019-03-16T16:00:02.905Z,26.50
2019-03-16T16:02:29.753Z,26.40
2019-03-16T16:04:56.488Z,25.90
2019-03-16T16:07:23.166Z,25.20
2019-03-16T16:09:50.112Z,24.70
2019-03-16T16:12:16.829Z,24.40
2019-03-16T16:14:43.544Z,24.20
2019-03-16T16:17:10.385Z,24.20
2019-03-16T16:19:37.237Z,24.50
2019-03-16T16:22:03.964Z,24.80
2019-03-16T16:24:30.976Z,24.20
2019-03-16T16:26:57.752Z,24.30
2019-03-16T16:29:24.449Z,24.20
2019-03-16T16:31:51.857Z,24.20
2019-03-16T16:34:18.548Z,24.20
2019-03-16T16:36:45.330Z,24.20
2019-03-16T16:39:14.404Z,23.80
2019-03-16T16:41:40.542Z,24.00
2019-03-16T16:44:07.303Z,23.80
2019-03-16T16:46:34.145Z,23.90
2019-03-16T16:49:00.874Z,23.60
2019-03-16T16:51:27.609Z,23.50
2019-03-16T16:53:54.443Z,23.70
2019-03-16T16:56:21.092Z,23.50
2019-03-16T16:58:47.850Z,23.80
2019-03-16T17:01:14.967Z,23.50
2019-03-16T17:03:41.723Z,23.20
2019-03-16T17:06:08.451Z,23.00
2019-03-16T17:08:35.389Z,22.80
2019-03-16T17:11:02.015Z,22.80
2019-03-16T17:13:28.713Z,23.10
2019-03-16T17:15:55.876Z,22.90
2019-03-16T17:18:22.664Z,22.90
2019-03-16T17:20:49.397Z,23.10
2019-03-16T17:23:16.110Z,22.90
2019-03-16T17:25:42.889Z,23.00
2019-03-16T17:28:11.612Z,23.30
2019-03-16T17:30:38.447Z,23.20
2019-03-16T17:33:05.250Z,23.30
2019-03-16T17:35:31.993Z,23.30
2019-03-16T17:37:58.822Z,23.60
2019-03-16T17:40:25.572Z,23.60
2019-03-16T17:42:52.306Z,23.10
2019-03-16T17:45:19.245Z,22.40
2019-03-16T17:47:45.969Z,22.50
2019-03-16T17:50:12.734Z,22.50
2019-03-16T17:52:39.565Z,22.80
2019-03-16T17:55:06.312Z,22.90
2019-03-16T17:57:33.048Z,22.80
2019-03-16T18:02:51.776Z,22.60
2019-03-16T18:05:14.191Z,23.00
2019-03-16T18:07:41.009Z,22.60
2019-03-16T18:10:07.851Z,22.70
2019-03-16T18:12:34.736Z,22.50
2019-03-16T18:15:01.541Z,22.40
2019-03-16T18:17:28.255Z,22.50
2019-03-16T18:19:54.929Z,22.40
2019-03-16T18:22:21.633Z,22.60
2019-03-16T18:24:48.371Z,22.90
2019-03-16T18:27:15.439Z,23.20
2019-03-16T18:29:42.204Z,22.80
2019-03-16T18:32:08.899Z,23.00
2019-03-16T18:34:35.648Z,23.20
2019-03-16T18:37:02.310Z,23.10
2019-03-16T18:39:29.026Z,23.30
2019-03-16T18:41:55.886Z,23.30
2019-03-16T18:44:23.513Z,23.60
2019-03-16T18:46:50.290Z,23.30
2019-03-16T18:49:17.044Z,23.60
2019-03-16T18:51:43.758Z,23.50
2019-03-16T18:54:10.444Z,23.60
2019-03-16T18:56:37.311Z,23.60
2019-03-16T18:59:04.073Z,23.70
2019-03-16T19:01:30.908Z,23.60
2019-03-16T19:03:57.848Z,23.50
2019-03-16T19:06:24.578Z,23.10
2019-03-16T19:08:51.320Z,22.90
2019-03-16T19:11:18.175Z,23.00
2019-03-16T19:13:45.014Z,22.80
2019-03-16T19:16:11.825Z,22.50
2019-03-16T19:18:38.901Z,22.40
2019-03-16T19:21:05.641Z,22.30
2019-03-16T19:23:32.482Z,22.20
2019-03-16T19:25:59.585Z,22.20
2019-03-16T19:28:26.355Z,21.90
2019-03-16T19:30:53.079Z,22.10
2019-03-16T19:33:19.953Z,22.00
2019-03-16T19:35:46.685Z,22.20
2019-03-16T19:38:13.636Z,22.20
2019-03-16T19:40:40.529Z,22.10
2019-03-16T19:43:07.306Z,22.40
2019-03-16T19:45:34.026Z,22.70
2019-03-16T19:48:03.122Z,22.40
2019-03-16T19:50:29.958Z,22.40
2019-03-16T19:52:56.709Z,22.40
2019-03-16T19:55:23.681Z,22.50
2019-03-16T19:57:50.420Z,22.70
2019-03-16T20:00:17.259Z,22.80
2019-03-16T20:02:50.275Z,23.20
2019-03-16T20:05:13.156Z,23.30
2019-03-16T20:07:39.936Z,23.30
2019-03-16T20:10:06.797Z,23.50
2019-03-16T20:12:33.617Z,23.60
2019-03-16T20:15:00.463Z,23.80
2019-03-16T20:17:27.492Z,23.80
2019-03-16T20:19:54.165Z,23.90
2019-03-16T20:22:21.012Z,23.80
2019-03-16T20:24:48.058Z,24.00
2019-03-16T20:27:14.707Z,24.10
2019-03-16T20:29:41.506Z,24.10
2019-03-16T20:32:09.015Z,23.90
2019-03-16T20:34:35.800Z,24.00
2019-03-16T20:37:02.544Z,23.90
2019-03-16T20:39:29.596Z,23.90
2019-03-16T20:41:56.319Z,23.90
2019-03-16T20:44:23.065Z,23.90
2019-03-16T20:46:50.081Z,24.00
2019-03-16T20:49:16.860Z,24.10
2019-03-16T20:51:43.809Z,24.10
2019-03-16T20:54:10.652Z,24.10
2019-03-16T20:56:37.381Z,24.10
2019-03-16T20:59:04.226Z,24.20
2019-03-16T21:01:31.570Z,24.20
2019-03-16T21:03:58.424Z,24.10
2019-03-16T21:06:25.256Z,24.10
2019-03-16T21:09:02.647Z,24.20
2019-03-16T21:11:20.673Z,24.20
2019-03-16T21:13:47.554Z,24.30
2019-03-16T21:16:14.367Z,24.40
2019-03-16T21:18:41.098Z,24.40
2019-03-16T21:21:07.836Z,24.60
2019-03-16T21:23:34.837Z,24.50
2019-03-16T21:26:01.642Z,24.70
2019-03-16T21:28:29.084Z,24.90
2019-03-16T21:30:57.565Z,24.90
2019-03-16T21:33:29.449Z,25.10
2019-03-16T21:35:52.876Z,25.10
2019-03-16T21:38:20.451Z,25.00
2019-03-16T21:40:48.096Z,25.20
2019-03-16T21:43:14.800Z,25.30
2019-03-16T21:45:41.590Z,25.30
2019-03-16T21:48:08.429Z,25.30
2019-03-16T21:50:35.275Z,25.40
2019-03-16T21:53:02.113Z,25.50
2019-03-16T21:55:28.983Z,25.50
2019-03-16T21:57:56.193Z,25.50
2019-03-16T22:00:23.114Z,25.50
2019-03-16T22:02:49.807Z,25.60
2019-03-16T22:05:16.632Z,25.70
2019-03-16T22:07:43.471Z,25.70
2019-03-16T22:10:10.206Z,25.70
2019-03-16T22:12:36.953Z,25.80
2019-03-16T22:15:03.813Z,25.80
2019-03-16T22:17:30.648Z,25.80
2019-03-16T22:19:57.358Z,25.80
2019-03-16T22:22:24.105Z,25.80
2019-03-16T22:24:50.836Z,25.80
2019-03-16T22:27:17.586Z,25.90
2019-03-16T22:29:44.528Z,25.90
2019-03-16T22:32:11.419Z,25.90
2019-03-16T22:34:38.105Z,26.00
2019-03-16T22:37:04.974Z,26.00
2019-03-16T22:39:31.680Z,26.00
2019-03-16T22:41:58.322Z,25.90
2019-03-16T22:44:25.214Z,25.90
2019-03-16T22:46:52.023Z,25.90
2019-03-16T22:49:18.741Z,26.00
2019-03-16T22:51:45.486Z,25.90
2019-03-16T22:54:12.292Z,25.90
2019-03-16T22:56:39.078Z,25.80
2019-03-16T22:59:05.905Z,25.80
2019-03-16T23:01:32.758Z,25.80
2019-03-16T23:04:06.782Z,25.90
2019-03-16T23:06:27.964Z,25.90
2019-03-16T23:08:54.703Z,25.90
2019-03-16T23:11:21.371Z,25.80
2019-03-16T23:13:48.202Z,25.80
2019-03-16T23:16:14.944Z,25.80
2019-03-16T23:18:41.622Z,25.80
2019-03-16T23:21:08.514Z,25.80
2019-03-16T23:23:35.255Z,25.80
2019-03-16T23:26:02.095Z,25.80
2019-03-16T23:28:29.036Z,25.80
2019-03-16T23:30:55.931Z,25.80
2019-03-16T23:33:22.828Z,25.80
2019-03-16T23:35:49.668Z,25.70
2019-03-16T23:38:16.313Z,25.80
2019-03-16T23:40:43.044Z,25.70
2019-03-16T23:43:09.840Z,25.70
2019-03-16T23:45:36.570Z,25.70
2019-03-16T23:48:03.253Z,25.70
2019-03-16T23:50:30.089Z,25.60
2019-03-16T23:52:56.807Z,25.60
2019-03-16T23:55:23.537Z,25.60
2019-03-16T23:57:50.811Z,25.50
